Higgins Lake, MI (48627)

10:40 PM EST on December 21, 2014 (GMT -0500)
Higgins Lake Point Detroit | Change Station
CLOSE
Current Station
Personal Weather Station
Location: Roscommon, MI
Elevation: 1165 ft
Nearby Weather Stations

Elev 1165 ft 44.47 °N, 84.71 °W | Updated 5 seconds ago

Overcast
Overcast
28.9 °F
Feels Like 29 °F
N
0.0
Wind Variable Wind from SSW
Gusts 5.1 mph

Today
High -- | Low -- °F
--% Chance of Precip.
Yesterday
High -- | Low -- °F
Precip. -- in
8:12 AM 5:02 PM
New Moon, 0% visible
Pressure 30.19 in
Visibility 7.0 miles
Clouds Few 1200 ft
Overcast 3200 ft
Windchill 29 °F
Dew Point 26 °F
Humidity 89%
Rainfall 0.00 in
Snow Depth Not available.
UV 0 out of 12
Pollen .10 out of 12
Air Quality Not available.
Flu Activity Not available.
METAR KHTL 220253Z AUTO 15006KT 7SM FEW012 OVC032 M02/M04 A3013 RMK AO2 SLP221 T10171039 55002

More Conditions Fewer Conditions

Pressure 30.19 in
Visibility 7.0 miles
Clouds Few 1200 ft
Overcast 3200 ft
Windchill 29 °F
Dew Point 26 °F
Humidity 89%
Rainfall 0.00 in
Snow Depth Not available.
UV 0 out of 12
Pollen .10 out of 12
Air Quality Not available.
Flu Activity Not available.
METAR KHTL 220253Z AUTO 15006KT 7SM FEW012 OVC032 M02/M04 A3013 RMK AO2 SLP221 T10171039 55002

More Conditions Fewer Conditions

Nowcast | as of 10:00 PM EST on December 21, 2014

At 11 PM...cloudy. Temperature 30. South winds 9 mph. At 1 am...cloudy. Temperature 29. South winds 9 mph. At 3 am...cloudy. Temperature 29. South winds 9 mph. At 5 am...cloudy. Temperature 28. South winds 9 mph.

×

10-Day Weather Forecast

Almanac

Astronomy

Dec. 21, 2014 Rise Set
Actual Time
Civil Twilight
Nautical Twilight
Astronomical Twilight
Moon
Length of Visible Light
Length of Day
Tomorrow will be .
, % of the Moon is Illuminated

Today's Extremes

State Highs State Lows

Community

WunderPhotos

Upload Photos

1,779,531 photos uploaded!

WunderBlogs® & News

Nearby

Air Quality

  Air Quality AQ Index Pollutant
Not available.

Snow Depth

Station Depth Elevation

Earthquake Activity

City Distance Mag. Time & Date
Minimum magnitude displayed is 2.5.

Coastal Water Temperatures

Place Temperature

Nearby Weather Stations